Time;durP1;ratioP1;P1;durP2;ratioP2;P2;SDS_P1;SDS_P2;PMS_P1;PMS_P2;Temp;Humidity;BMP_temperature;BMP_pressure;BME280_temperature;BME280_humidity;BME280_pressure;Samples;Min_cycle;Max_cycle;Signal;HPM_P1;HPM_P2
2023/07/20 00:01:21;;;;;;;10.70;10.10;;;18.90;51.90;;;;;;5102586;28;20051;-72
2023/07/20 00:03:54;;;;;;;11.40;10.32;;;19.00;52.00;;;;;;5107571;28;20031;-72
2023/07/20 00:06:27;;;;;;;10.70;10.00;;;18.90;52.00;;;;;;5102394;28;20382;-72
2023/07/20 00:08:54;;;;;;;11.40;10.50;;;18.90;51.90;;;;;;5103780;28;20086;-72
2023/07/20 00:11:20;;;;;;;10.70;9.65;;;18.90;51.90;;;;;;5103976;28;20111;-72
2023/07/20 00:13:46;;;;;;;11.05;10.20;;;18.80;52.00;;;;;;5106591;28;20032;-72
2023/07/20 00:16:11;;;;;;;11.05;10.18;;;18.80;52.10;;;;;;5106011;28;20035;-71
2023/07/20 00:18:37;;;;;;;11.13;10.15;;;18.80;52.40;;;;;;5106365;28;20064;-72
2023/07/20 00:21:03;;;;;;;11.30;10.50;;;18.80;52.40;;;;;;5102592;27;20110;-72
2023/07/20 00:23:29;;;;;;;10.70;10.00;;;18.80;52.40;;;;;;5091069;28;20035;-72
2023/07/20 00:25:55;;;;;;;10.98;10.30;;;18.80;52.40;;;;;;5085345;28;20047;-72
2023/07/20 00:28:21;;;;;;;11.00;10.18;;;18.80;52.80;;;;;;5109275;28;20046;-72
2023/07/20 00:30:46;;;;;;;10.95;10.18;;;18.80;52.70;;;;;;5106007;28;20031;-72
2023/07/20 00:33:12;;;;;;;10.75;10.00;;;18.70;53.00;;;;;;5084322;28;20031;-72
2023/07/20 00:35:38;;;;;;;10.98;10.10;;;18.70;53.30;;;;;;5105795;27;20094;-72
2023/07/20 00:38:05;;;;;;;10.85;10.10;;;18.70;53.10;;;;;;5102803;28;20043;-72
2023/07/20 00:40:40;;;;;;;10.80;10.07;;;18.70;52.90;;;;;;5103066;28;20023;-72
2023/07/20 00:43:06;;;;;;;11.35;10.55;;;18.70;54.00;;;;;;5107617;28;20031;-72
2023/07/20 00:45:33;;;;;;;11.57;10.68;;;18.60;53.40;;;;;;5102529;28;20118;-72
2023/07/20 00:48:01;;;;;;;11.05;10.35;;;18.60;53.30;;;;;;5106968;28;20023;-71
2023/07/20 00:50:27;;;;;;;10.52;9.68;;;18.60;53.00;;;;;;5124380;28;20285;-73
2023/07/20 00:52:54;;;;;;;11.05;10.13;;;18.50;53.50;;;;;;5123924;28;20032;-72
2023/07/20 00:55:20;;;;;;;10.48;9.88;;;18.40;53.70;;;;;;5121425;28;20036;-72
2023/07/20 00:57:46;;;;;;;10.90;10.10;;;18.40;54.10;;;;;;5120228;28;20032;-72
2023/07/20 01:00:12;;;;;;;10.60;9.80;;;18.30;54.40;;;;;;5121367;28;20039;-71
2023/07/20 01:02:38;;;;;;;10.57;9.88;;;18.30;54.70;;;;;;5121793;28;20050;-72
2023/07/20 01:05:06;;;;;;;11.10;10.18;;;18.20;55.00;;;;;;5126817;28;20055;-71
2023/07/20 01:07:36;;;;;;;10.75;10.13;;;18.30;54.90;;;;;;5120682;28;20032;-71
2023/07/20 01:10:02;;;;;;;11.48;10.77;;;18.30;54.50;;;;;;5114658;28;20039;-72
2023/07/20 01:12:46;;;;;;;12.50;11.50;;;18.30;54.40;;;;;;5107403;28;20028;-72
2023/07/20 01:15:12;;;;;;;11.18;10.48;;;18.20;54.10;;;;;;5102883;28;20032;-72
2023/07/20 01:17:38;;;;;;;11.27;10.48;;;18.10;54.20;;;;;;5105113;28;20042;-72
2023/07/20 01:20:07;;;;;;;11.57;10.63;;;18.10;54.20;;;;;;5110809;28;20023;-72
2023/07/20 01:22:54;;;;;;;11.63;10.73;;;18.10;54.20;;;;;;5108636;28;20032;-72
2023/07/20 01:25:35;;;;;;;10.93;10.20;;;18.00;54.50;;;;;;5109299;27;20031;-72
2023/07/20 01:28:22;;;;;;;11.85;11.05;;;18.00;54.50;;;;;;5109316;28;20036;-72
2023/07/20 01:31:13;;;;;;;11.07;10.38;;;18.00;54.40;;;;;;5107865;27;20046;-72
2023/07/20 01:33:39;;;;;;;;;;;18.00;54.70;;;;;;5111582;28;20033;-72
2023/07/20 01:36:05;;;;;;;11.07;10.27;;;18.00;54.60;;;;;;5092657;28;19955;-72
2023/07/20 01:38:31;;;;;;;11.55;10.75;;;18.00;54.80;;;;;;5110564;28;20052;-72
2023/07/20 01:40:57;;;;;;;11.55;10.73;;;17.90;55.00;;;;;;5103713;27;20034;-72
2023/07/20 01:43:23;;;;;;;11.88;10.82;;;17.90;55.80;;;;;;5109220;28;20046;-72
2023/07/20 01:45:49;;;;;;;11.50;10.70;;;17.80;55.90;;;;;;5111844;28;20019;-72
2023/07/20 01:48:14;;;;;;;11.50;10.70;;;17.70;56.40;;;;;;5089271;28;20078;-72
2023/07/20 01:50:40;;;;;;;11.82;10.77;;;17.80;56.10;;;;;;5102663;28;20516;-72
2023/07/20 01:53:06;;;;;;;11.55;10.90;;;17.80;56.30;;;;;;5108708;28;20035;-72
2023/07/20 01:55:31;;;;;;;12.15;11.10;;;17.70;56.60;;;;;;5108125;28;20054;-72
2023/07/20 01:58:00;;;;;;;11.60;10.80;;;17.70;56.60;;;;;;5103668;28;20028;-72
2023/07/20 02:00:25;;;;;;;12.73;11.43;;;17.70;56.70;;;;;;5108033;28;20034;-72
2023/07/20 02:02:51;;;;;;;11.35;10.65;;;17.70;57.30;;;;;;5105773;28;20028;-72
2023/07/20 02:05:17;;;;;;;11.15;10.52;;;17.70;56.80;;;;;;5109232;28;20158;-72
2023/07/20 02:07:43;;;;;;;11.65;10.82;;;17.60;56.80;;;;;;5107079;28;20142;-72
2023/07/20 02:10:09;;;;;;;12.10;11.30;;;17.60;57.00;;;;;;5110117;28;20119;-72
2023/07/20 02:12:35;;;;;;;12.52;11.35;;;17.50;57.50;;;;;;5110978;28;20032;-72
2023/07/20 02:15:02;;;;;;;12.10;11.10;;;17.40;57.90;;;;;;5106850;28;20039;-72
2023/07/20 02:17:28;;;;;;;12.40;11.50;;;17.50;57.50;;;;;;5094070;28;20123;-72
2023/07/20 02:19:54;;;;;;;12.35;11.32;;;17.30;57.40;;;;;;5112806;27;20106;-73
2023/07/20 02:22:21;;;;;;;12.05;11.05;;;17.20;57.60;;;;;;5110773;28;20027;-73
2023/07/20 02:24:46;;;;;;;12.25;10.88;;;17.30;57.10;;;;;;5107249;28;20035;-73
2023/07/20 02:27:13;;;;;;;11.77;10.95;;;17.20;57.50;;;;;;5106724;28;20027;-73
2023/07/20 02:29:40;;;;;;;12.23;11.32;;;17.30;57.50;;;;;;5108254;28;20031;-73
2023/07/20 02:32:06;;;;;;;12.27;11.43;;;17.20;57.20;;;;;;5111062;28;20058;-73
2023/07/20 02:34:32;;;;;;;13.23;12.13;;;17.20;57.90;;;;;;5112257;27;20142;-73
2023/07/20 02:36:58;;;;;;;12.52;11.55;;;17.20;58.10;;;;;;5090569;28;20829;-73
2023/07/20 02:39:24;;;;;;;11.45;10.75;;;17.20;57.60;;;;;;5104829;28;20117;-73
2023/07/20 02:41:50;;;;;;;12.40;11.32;;;17.10;57.40;;;;;;5103574;28;20125;-73
2023/07/20 02:44:16;;;;;;;12.20;11.15;;;17.10;57.30;;;;;;5107140;28;20097;-72
2023/07/20 02:46:42;;;;;;;11.50;10.73;;;17.10;57.20;;;;;;5110425;28;20047;-73
2023/07/20 02:49:07;;;;;;;12.48;11.52;;;17.00;57.60;;;;;;5108687;27;20054;-73
2023/07/20 02:51:33;;;;;;;12.90;11.70;;;16.90;57.70;;;;;;5109600;28;20042;-72
2023/07/20 02:53:59;;;;;;;13.20;12.05;;;16.80;58.30;;;;;;5105901;28;20046;-73
2023/07/20 02:56:24;;;;;;;12.65;11.70;;;16.80;58.30;;;;;;5110948;28;20032;-72
2023/07/20 02:58:52;;;;;;;12.02;11.20;;;16.70;58.40;;;;;;5108603;28;20374;-73
2023/07/20 03:01:18;;;;;;;12.20;11.48;;;16.70;58.40;;;;;;5102618;28;20043;-73
2023/07/20 03:03:46;;;;;;;12.70;11.75;;;16.70;58.40;;;;;;5105953;28;20035;-72
2023/07/20 03:06:15;;;;;;;12.57;11.57;;;16.70;58.70;;;;;;5107748;28;20032;-72
2023/07/20 03:08:47;;;;;;;11.80;10.90;;;16.60;58.60;;;;;;5107779;28;20059;-73
2023/07/20 03:11:14;;;;;;;12.68;11.95;;;16.60;58.20;;;;;;5103360;28;20111;-74
2023/07/20 03:13:42;;;;;;;12.57;11.60;;;16.50;58.70;;;;;;5104071;28;20123;-73
2023/07/20 03:16:11;;;;;;;13.40;12.63;;;16.50;58.60;;;;;;5086015;28;20027;-72
2023/07/20 03:18:38;;;;;;;12.20;11.38;;;16.50;58.40;;;;;;5106094;27;20032;-73
2023/07/20 03:21:06;;;;;;;12.77;11.98;;;16.50;58.70;;;;;;5103233;28;20705;-73
2023/07/20 03:23:32;;;;;;;12.77;11.98;;;16.50;58.70;;;;;;5105903;28;20040;-73
2023/07/20 03:25:57;;;;;;;13.27;12.48;;;16.50;58.50;;;;;;5106990;28;20049;-73
2023/07/20 03:28:23;;;;;;;12.48;11.60;;;16.50;59.10;;;;;;5104995;28;20521;-73
2023/07/20 03:30:59;;;;;;;13.43;12.45;;;16.30;58.70;;;;;;5105843;28;20139;-73
2023/07/20 03:33:29;;;;;;;13.05;12.25;;;16.30;59.00;;;;;;5103999;28;20028;-72
2023/07/20 03:35:55;;;;;;;13.55;12.65;;;16.30;59.20;;;;;;5101324;28;20049;-73
2023/07/20 03:38:22;;;;;;;12.88;11.88;;;16.30;59.10;;;;;;5104913;28;20046;-73
2023/07/20 03:40:55;;;;;;;13.52;12.52;;;16.20;59.30;;;;;;5103328;28;20038;-73
2023/07/20 03:43:22;;;;;;;13.43;12.52;;;16.20;59.40;;;;;;5105659;28;20030;-73
2023/07/20 03:45:48;;;;;;;14.50;13.38;;;16.20;60.80;;;;;;5103051;27;20028;-73
2023/07/20 03:48:19;;;;;;;13.48;12.65;;;16.10;60.30;;;;;;5103865;28;20035;-73
2023/07/20 03:50:49;;;;;;;13.52;12.75;;;16.10;60.20;;;;;;5105388;28;20069;-73
2023/07/20 03:53:15;;;;;;;13.32;12.52;;;16.10;60.60;;;;;;5106364;28;20385;-73
2023/07/20 03:55:48;;;;;;;13.98;13.05;;;16.10;60.50;;;;;;5091063;28;20458;-73
2023/07/20 03:58:14;;;;;;;14.15;13.10;;;16.10;61.00;;;;;;5105319;28;20027;-73
2023/07/20 04:00:40;;;;;;;13.40;12.50;;;16.00;61.20;;;;;;5104022;28;20023;-73
2023/07/20 04:03:06;;;;;;;13.35;12.45;;;16.00;60.80;;;;;;5091063;28;20031;-73
2023/07/20 04:05:32;;;;;;;13.70;12.90;;;16.00;61.00;;;;;;5102388;28;20077;-73
2023/07/20 04:07:59;;;;;;;13.82;13.02;;;16.00;61.10;;;;;;5105814;28;20059;-73
2023/07/20 04:10:24;;;;;;;14.85;13.60;;;16.00;61.20;;;;;;5107136;28;20032;-73
2023/07/20 04:12:50;;;;;;;15.07;13.55;;;16.00;61.30;;;;;;5105716;28;20456;-73
2023/07/20 04:15:16;;;;;;;14.50;13.40;;;16.00;61.50;;;;;;5106356;28;20047;-73
2023/07/20 04:17:41;;;;;;;13.50;12.70;;;16.10;61.10;;;;;;5108472;27;20023;-73
2023/07/20 04:20:08;;;;;;;14.77;13.32;;;16.10;61.30;;;;;;5105902;28;20543;-73
2023/07/20 04:22:34;;;;;;;13.55;12.63;;;16.10;61.40;;;;;;5108202;28;20545;-73
2023/07/20 04:24:59;;;;;;;13.32;12.43;;;16.10;61.50;;;;;;5103420;28;20122;-73
2023/07/20 04:27:26;;;;;;;14.30;12.98;;;16.20;60.80;;;;;;5104469;28;20032;-73
2023/07/20 04:29:52;;;;;;;14.07;13.18;;;16.20;60.20;;;;;;5104881;28;20528;-73
2023/07/20 04:32:17;;;;;;;13.93;13.07;;;16.30;59.70;;;;;;5087340;28;20094;-73
2023/07/20 04:34:43;;;;;;;14.20;13.00;;;16.30;59.50;;;;;;5107601;28;20039;-73
2023/07/20 04:37:09;;;;;;;14.13;13.10;;;16.40;59.70;;;;;;5102813;28;20054;-73
2023/07/20 04:39:35;;;;;;;13.98;13.27;;;16.50;59.00;;;;;;5104035;28;20050;-73
2023/07/20 04:42:00;;;;;;;14.50;13.52;;;16.50;59.70;;;;;;5073774;28;20043;-73
2023/07/20 04:44:26;;;;;;;13.90;12.90;;;16.60;58.70;;;;;;5105078;28;20074;-73
2023/07/20 04:46:52;;;;;;;14.38;13.38;;;16.70;58.40;;;;;;5102484;27;20028;-73
2023/07/20 04:49:18;;;;;;;14.68;13.60;;;16.80;57.50;;;;;;5105057;28;20032;-73
2023/07/20 04:51:44;;;;;;;14.50;13.23;;;16.90;58.30;;;;;;5104764;28;20035;-73
2023/07/20 04:54:10;;;;;;;14.32;12.80;;;17.10;57.30;;;;;;5103210;28;20047;-73
2023/07/20 04:56:36;;;;;;;12.55;11.43;;;17.30;57.20;;;;;;5103547;28;20360;-73
2023/07/20 04:59:01;;;;;;;12.95;11.75;;;17.30;54.50;;;;;;5103583;28;20555;-73
2023/07/20 05:01:27;;;;;;;12.68;11.65;;;17.30;56.30;;;;;;5104473;28;20905;-73
2023/07/20 05:03:53;;;;;;;12.77;11.52;;;17.30;56.10;;;;;;5103542;28;20535;-75
2023/07/20 05:06:19;;;;;;;12.50;11.70;;;17.30;56.30;;;;;;5102414;28;20367;-75
2023/07/20 05:08:45;;;;;;;13.00;12.10;;;17.40;55.40;;;;;;5102877;28;20038;-75
2023/07/20 05:11:11;;;;;;;12.90;12.00;;;17.50;55.50;;;;;;5105637;28;20032;-75
2023/07/20 05:13:37;;;;;;;12.82;11.98;;;17.50;53.90;;;;;;5101784;28;20039;-76
2023/07/20 05:16:03;;;;;;;13.50;12.50;;;17.60;54.50;;;;;;5101128;28;20038;-75
2023/07/20 05:18:28;;;;;;;12.80;11.85;;;17.70;54.90;;;;;;5101848;28;20027;-74
2023/07/20 05:20:55;;;;;;;13.10;12.07;;;17.70;53.90;;;;;;5100998;28;20028;-75
2023/07/20 05:23:21;;;;;;;12.30;11.20;;;17.80;54.00;;;;;;5104086;28;20028;-75
2023/07/20 05:25:53;;;;;;;13.02;12.02;;;17.80;54.40;;;;;;5100193;28;20046;-76
2023/07/20 05:28:19;;;;;;;12.88;12.13;;;17.90;53.70;;;;;;5101292;28;20039;-73
2023/07/20 05:30:44;;;;;;;12.63;11.73;;;17.90;53.00;;;;;;5090290;28;20396;-73
2023/07/20 05:33:10;;;;;;;12.25;11.35;;;17.90;52.10;;;;;;5101428;28;20024;-73
2023/07/20 05:35:37;;;;;;;12.40;11.38;;;17.80;53.10;;;;;;5105242;28;20523;-73
2023/07/20 05:38:04;;;;;;;12.75;11.80;;;17.80;52.50;;;;;;5102326;28;20127;-73
2023/07/20 05:40:30;;;;;;;13.48;12.30;;;17.80;52.20;;;;;;5102317;28;20031;-72
2023/07/20 05:42:56;;;;;;;12.45;11.65;;;17.80;53.10;;;;;;5099931;28;20031;-72
2023/07/20 05:45:22;;;;;;;12.70;11.90;;;17.60;53.60;;;;;;5103205;28;20045;-72
2023/07/20 05:47:48;;;;;;;12.75;11.90;;;17.60;52.90;;;;;;5105238;28;20462;-73
2023/07/20 05:50:14;;;;;;;13.23;12.27;;;17.70;54.20;;;;;;5103957;28;20031;-73
2023/07/20 05:52:40;;;;;;;13.00;12.25;;;17.80;53.10;;;;;;5105786;28;20027;-72
2023/07/20 05:55:06;;;;;;;12.82;12.02;;;18.00;53.10;;;;;;5104361;28;20126;-73
2023/07/20 05:57:32;;;;;;;13.60;12.57;;;18.20;52.30;;;;;;5103874;28;20114;-72
2023/07/20 05:59:58;;;;;;;13.23;12.40;;;18.30;52.10;;;;;;5104884;28;20418;-72
2023/07/20 06:02:24;;;;;;;13.00;12.00;;;18.50;52.50;;;;;;5103174;28;20060;-72
2023/07/20 06:04:49;;;;;;;12.65;11.85;;;18.80;50.00;;;;;;5101371;28;20031;-73
2023/07/20 06:07:15;;;;;;;11.75;10.95;;;19.00;51.00;;;;;;5108982;28;20670;-71
2023/07/20 06:09:41;;;;;;;12.25;11.55;;;19.00;48.80;;;;;;5106842;28;20114;-70
2023/07/20 06:12:07;;;;;;;12.52;11.80;;;18.90;49.20;;;;;;5110949;28;20078;-70
2023/07/20 06:14:33;;;;;;;12.77;11.88;;;18.80;49.00;;;;;;5108549;27;20043;-71
2023/07/20 06:16:59;;;;;;;12.10;11.40;;;18.90;49.10;;;;;;5107091;28;20389;-71
2023/07/20 06:19:25;;;;;;;13.05;10.98;;;18.80;49.60;;;;;;5108179;28;20152;-70
2023/07/20 06:21:50;;;;;;;11.95;11.25;;;18.90;49.30;;;;;;5109468;28;20019;-70
2023/07/20 06:24:17;;;;;;;12.40;11.40;;;19.00;49.70;;;;;;5076075;28;20093;-71
2023/07/20 06:26:43;;;;;;;12.80;11.55;;;18.90;48.60;;;;;;5107519;28;20536;-72
2023/07/20 06:29:09;;;;;;;12.85;11.95;;;18.80;49.60;;;;;;5110050;27;20118;-71
2023/07/20 06:31:35;;;;;;;13.90;11.90;;;18.70;48.90;;;;;;5107775;28;20512;-70
2023/07/20 06:34:02;;;;;;;13.50;12.50;;;18.70;49.20;;;;;;5106677;28;20028;-71
2023/07/20 06:36:28;;;;;;;12.75;11.85;;;18.70;49.50;;;;;;5106047;28;20032;-71
2023/07/20 06:38:54;;;;;;;13.00;11.80;;;18.80;50.00;;;;;;5107085;28;20032;-71
2023/07/20 06:41:20;;;;;;;12.80;12.10;;;18.90;49.10;;;;;;5108583;28;20043;-71
2023/07/20 06:43:47;;;;;;;12.65;11.52;;;19.00;49.10;;;;;;5103400;27;20036;-70
2023/07/20 06:46:12;;;;;;;13.63;12.27;;;19.00;49.20;;;;;;5107242;28;20082;-70
2023/07/20 06:48:38;;;;;;;13.57;12.48;;;19.20;48.90;;;;;;5105177;28;20028;-70
2023/07/20 06:51:03;;;;;;;12.77;11.90;;;19.30;48.90;;;;;;5105930;28;20159;-71
2023/07/20 06:53:30;;;;;;;12.50;11.77;;;19.50;49.00;;;;;;5091674;28;20134;-70
2023/07/20 06:55:58;;;;;;;13.27;12.57;;;19.40;47.00;;;;;;5106049;28;20488;-70
2023/07/20 06:58:25;;;;;;;13.48;12.68;;;19.20;47.50;;;;;;5105456;28;20081;-71
2023/07/20 07:00:51;;;;;;;13.00;12.18;;;19.40;49.00;;;;;;5106316;28;20027;-71
2023/07/20 07:03:17;;;;;;;13.77;12.52;;;19.50;48.90;;;;;;5106249;28;20036;-71
2023/07/20 07:05:44;;;;;;;12.65;11.57;;;19.70;49.70;;;;;;5107229;28;20493;-71
2023/07/20 07:08:10;;;;;;;12.55;11.85;;;19.70;47.30;;;;;;5107069;28;20035;-71
2023/07/20 07:10:36;;;;;;;13.52;12.73;;;19.60;47.90;;;;;;5089482;28;20417;-71
2023/07/20 07:13:02;;;;;;;13.57;12.80;;;19.40;47.50;;;;;;5102870;27;20024;-71
2023/07/20 07:15:28;;;;;;;13.18;12.30;;;19.30;48.60;;;;;;5105884;28;20032;-71
2023/07/20 07:17:54;;;;;;;14.77;13.75;;;19.40;49.40;;;;;;5090651;28;20027;-71
2023/07/20 07:20:20;;;;;;;15.23;14.32;;;19.70;47.40;;;;;;5109332;28;20697;-71
2023/07/20 07:22:47;;;;;;;14.50;13.60;;;19.60;47.00;;;;;;5104316;28;20031;-70
2023/07/20 07:25:12;;;;;;;15.23;14.13;;;19.60;47.20;;;;;;5086064;28;20039;-71
2023/07/20 07:27:38;;;;;;;14.30;13.40;;;19.60;46.90;;;;;;5105404;27;20032;-71
2023/07/20 07:30:04;;;;;;;15.13;13.98;;;19.50;47.80;;;;;;5107676;28;20043;-71
2023/07/20 07:32:30;;;;;;;14.32;13.50;;;19.60;47.30;;;;;;5105258;28;20063;-71
2023/07/20 07:34:58;;;;;;;14.05;13.20;;;19.70;47.60;;;;;;5091347;28;20055;-71
2023/07/20 07:37:24;;;;;;;14.65;13.75;;;19.60;48.00;;;;;;5104646;28;20544;-71
2023/07/20 07:39:49;;;;;;;13.50;12.80;;;19.70;46.70;;;;;;5107049;28;20050;-71
2023/07/20 07:42:15;;;;;;;14.70;13.77;;;19.80;47.60;;;;;;5107318;27;20036;-70
2023/07/20 07:44:41;;;;;;;13.75;12.88;;;19.80;47.00;;;;;;5106887;28;20452;-71
2023/07/20 07:47:07;;;;;;;14.68;13.45;;;19.90;47.60;;;;;;5106835;28;20040;-70
2023/07/20 07:49:32;;;;;;;13.77;12.98;;;19.50;47.30;;;;;;5106609;28;20035;-70
2023/07/20 07:51:58;;;;;;;14.52;13.50;;;19.40;47.80;;;;;;5106280;28;20038;-70
2023/07/20 07:54:24;;;;;;;13.95;13.20;;;19.50;47.00;;;;;;5107494;28;20031;-70
2023/07/20 07:56:51;;;;;;;14.68;13.68;;;19.60;47.20;;;;;;5105592;28;20035;-71
2023/07/20 07:59:17;;;;;;;14.65;13.52;;;19.70;47.50;;;;;;5105436;28;20034;-71
2023/07/20 08:01:42;;;;;;;14.00;13.20;;;20.00;46.60;;;;;;5108537;28;20031;-71
2023/07/20 08:04:08;;;;;;;15.60;14.50;;;20.20;46.10;;;;;;5102608;28;20035;-70
2023/07/20 08:06:34;;;;;;;15.88;14.73;;;20.10;46.00;;;;;;5106792;28;20035;-71
2023/07/20 08:09:00;;;;;;;15.50;14.50;;;20.40;45.90;;;;;;5108992;28;20081;-71
2023/07/20 08:11:26;;;;;;;16.20;15.07;;;20.50;44.00;;;;;;5108095;28;20121;-71
2023/07/20 08:13:51;;;;;;;14.85;14.05;;;20.60;43.00;;;;;;5107662;28;20644;-71
2023/07/20 08:16:17;;;;;;;14.95;14.15;;;20.60;42.00;;;;;;5108785;28;20138;-71
2023/07/20 08:18:44;;;;;;;15.02;14.13;;;20.70;43.70;;;;;;5107256;28;20023;-71
2023/07/20 08:21:09;;;;;;;14.57;13.77;;;21.00;43.60;;;;;;5105148;28;20104;-71
2023/07/20 08:23:35;;;;;;;14.77;13.88;;;20.90;42.10;;;;;;5105577;28;20085;-71
2023/07/20 08:26:01;;;;;;;14.70;13.88;;;20.50;42.60;;;;;;5104175;28;20026;-71
2023/07/20 08:28:27;;;;;;;15.73;14.82;;;20.60;43.10;;;;;;5106229;28;20028;-71
2023/07/20 08:30:53;;;;;;;15.93;14.75;;;20.60;42.80;;;;;;5104332;28;20486;-71
2023/07/20 08:33:19;;;;;;;17.00;16.10;;;20.90;43.10;;;;;;5081629;28;20031;-71
2023/07/20 08:35:45;;;;;;;16.02;15.23;;;21.00;41.00;;;;;;5103351;28;20038;-71
2023/07/20 08:38:12;;;;;;;18.95;17.95;;;21.40;40.50;;;;;;5105776;28;20153;-71
2023/07/20 08:40:43;;;;;;;24.25;22.95;;;21.20;39.70;;;;;;5090334;28;20059;-71
2023/07/20 08:43:11;;;;;;;21.90;20.75;;;21.20;38.80;;;;;;5102861;28;20024;-71
2023/07/20 08:45:39;;;;;;;21.60;20.60;;;20.90;38.40;;;;;;5100247;28;20032;-71
2023/07/20 08:48:06;;;;;;;18.83;17.90;;;20.90;40.10;;;;;;5105913;28;20135;-71
2023/07/20 08:50:32;;;;;;;20.00;19.02;;;21.10;40.80;;;;;;5106649;28;20112;-71
2023/07/20 08:52:59;;;;;;;21.73;20.10;;;21.00;40.10;;;;;;5105782;28;20035;-71
2023/07/20 08:55:26;;;;;;;20.67;19.58;;;21.30;39.60;;;;;;5105397;28;20039;-71
2023/07/20 08:57:54;;;;;;;24.38;23.08;;;21.90;39.40;;;;;;5103498;28;20025;-72
2023/07/20 09:00:21;;;;;;;20.73;19.80;;;22.20;38.40;;;;;;5104900;28;20711;-71
2023/07/20 09:02:51;;;;;;;40.00;38.28;;;22.00;38.00;;;;;;5104235;28;20222;-72
2023/07/20 09:05:17;;;;;;;22.80;21.30;;;21.80;37.00;;;;;;5085221;28;20043;-72
2023/07/20 09:07:43;;;;;;;18.90;18.00;;;21.30;39.10;;;;;;5105090;28;20465;-71
2023/07/20 09:10:09;;;;;;;21.20;19.92;;;21.30;41.30;;;;;;5103862;28;20035;-72
2023/07/20 09:12:42;;;;;;;21.95;20.85;;;21.80;39.50;;;;;;5102806;28;20028;-72
2023/07/20 09:15:09;;;;;;;42.10;40.38;;;22.50;39.80;;;;;;5104200;28;20088;-71
2023/07/20 09:17:35;;;;;;;44.00;42.20;;;23.00;35.40;;;;;;5106198;28;20072;-72
2023/07/20 09:20:08;;;;;;;54.58;52.20;;;23.10;36.00;;;;;;5101019;28;20047;-72
2023/07/20 09:22:34;;;;;;;40.75;39.08;;;22.50;36.90;;;;;;5106301;28;20032;-72
2023/07/20 09:25:00;;;;;;;41.92;39.83;;;22.30;37.90;;;;;;5099027;28;20028;-72
2023/07/20 09:27:39;;;;;;;38.83;37.22;;;21.90;39.20;;;;;;5102680;28;20037;-72
2023/07/20 09:30:09;;;;;;;39.13;37.30;;;22.30;39.70;;;;;;5103282;28;20715;-72
2023/07/20 09:32:44;;;;;;;48.83;46.92;;;22.90;37.80;;;;;;5106148;28;20553;-72
2023/07/20 09:35:17;;;;;;;40.78;39.17;;;23.30;37.90;;;;;;5107031;28;20031;-72
2023/07/20 09:37:57;;;;;;;27.30;26.00;;;22.90;37.20;;;;;;5106016;28;20059;-72
2023/07/20 09:40:25;;;;;;;45.33;43.53;;;22.40;38.50;;;;;;5106471;28;20035;-72
2023/07/20 09:42:59;;;;;;;46.80;44.80;;;22.90;37.60;;;;;;5109795;28;20051;-71
2023/07/20 09:45:35;;;;;;;26.20;25.08;;;23.20;36.70;;;;;;5104960;28;20401;-72
2023/07/20 09:48:06;;;;;;;44.60;42.55;;;23.20;40.20;;;;;;5106560;28;20024;-72
2023/07/20 09:50:33;;;;;;;44.58;42.55;;;23.30;36.90;;;;;;5106194;28;20438;-72
2023/07/20 09:53:00;;;;;;;47.65;45.55;;;22.90;36.80;;;;;;5105492;28;20473;-72
2023/07/20 09:55:26;;;;;;;48.92;47.00;;;22.70;38.40;;;;;;5105461;28;20084;-72
2023/07/20 09:57:53;;;;;;;55.95;53.65;;;22.60;38.70;;;;;;5104310;28;20031;-72
2023/07/20 10:00:20;;;;;;;46.92;44.75;;;22.70;37.40;;;;;;5108215;28;20028;-72
2023/07/20 10:02:46;;;;;;;45.60;43.67;;;22.80;37.30;;;;;;5106403;28;20497;-69
2023/07/20 10:05:16;;;;;;;33.03;31.65;;;22.90;37.20;;;;;;5090035;28;20031;-69
2023/07/20 10:07:49;;;;;;;55.30;52.50;;;23.30;42.90;;;;;;5090251;28;20102;-69
2023/07/20 10:10:17;;;;;;;49.00;47.03;;;24.40;37.70;;;;;;5105434;28;20122;-69
2023/07/20 10:12:44;;;;;;;42.03;40.33;;;24.20;35.40;;;;;;5107034;28;20043;-69
2023/07/20 10:15:34;;;;;;;71.93;69.00;;;24.00;35.40;;;;;;5104828;28;20114;-69
2023/07/20 10:18:12;;;;;;;51.75;49.55;;;23.80;35.60;;;;;;5094443;28;20050;-69
2023/07/20 10:20:41;;;;;;;115.28;110.40;;;23.90;37.20;;;;;;5107172;28;20033;-69
2023/07/20 10:23:07;;;;;;;132.35;127.38;;;24.20;33.70;;;;;;5109000;28;20038;-69
2023/07/20 10:25:37;;;;;;;132.60;127.45;;;23.70;34.20;;;;;;5111049;27;20035;-69
2023/07/20 10:28:06;;;;;;;57.72;55.28;;;23.40;34.60;;;;;;5105161;28;20099;-68
2023/07/20 10:30:34;;;;;;;54.17;51.97;;;23.90;36.10;;;;;;5105982;28;20127;-68
2023/07/20 10:33:02;;;;;;;47.30;45.40;;;24.00;36.40;;;;;;5106955;28;20039;-68
2023/07/20 10:35:28;;;;;;;51.53;49.20;;;24.20;36.60;;;;;;5105726;28;20036;-69
2023/07/20 10:38:00;;;;;;;48.67;46.60;;;23.80;36.20;;;;;;5101384;28;20048;-69
2023/07/20 10:40:39;;;;;;;56.30;53.95;;;23.60;36.70;;;;;;5086711;28;20028;-69
2023/07/20 10:43:09;;;;;;;60.25;57.88;;;23.80;38.40;;;;;;5105629;28;20093;-69
2023/07/20 10:45:42;;;;;;;47.15;44.90;;;25.00;35.40;;;;;;5108677;28;20035;-69
2023/07/20 10:48:22;;;;;;;42.83;41.05;;;25.80;32.70;;;;;;5110109;28;20036;-69
2023/07/20 10:51:14;;;;;;;105.63;101.72;;;25.60;32.40;;;;;;5106970;28;20040;-69
2023/07/20 10:53:40;;;;;;;96.82;93.22;;;24.30;35.60;;;;;;5091887;28;20059;-72
2023/07/20 10:56:13;;;;;;;51.33;49.13;;;23.80;35.20;;;;;;5107595;28;20412;-72
2023/07/20 10:58:41;;;;;;;78.95;75.88;;;24.10;35.90;;;;;;5107526;28;20047;-73
2023/07/20 11:01:06;;;;;;;91.20;87.68;;;24.40;34.30;;;;;;5090534;28;20118;-72
2023/07/20 11:03:41;;;;;;;95.63;92.03;;;24.90;33.80;;;;;;5109361;28;20098;-72
2023/07/20 11:06:43;;;;;;;175.02;168.48;;;25.60;32.40;;;;;;5106512;28;20058;-72
2023/07/20 11:09:11;;;;;;;131.85;127.05;;;25.10;31.20;;;;;;5056658;28;20500;-74
2023/07/20 11:11:38;;;;;;;217.48;209.60;;;25.60;31.50;;;;;;5090045;28;20042;-73
2023/07/20 11:14:07;;;;;;;137.43;132.38;;;24.90;32.20;;;;;;5109187;28;20058;-74
2023/07/20 11:16:33;;;;;;;293.25;282.30;;;24.90;32.60;;;;;;5110162;28;20031;-73
2023/07/20 11:18:59;;;;;;;1999.90;999.90;;;25.50;30.80;;;;;;5108504;28;20027;-72
2023/07/20 11:21:25;;;;;;;1999.90;999.90;;;25.40;29.60;;;;;;5106751;28;20498;-72
2023/07/20 11:23:53;;;;;;;1999.90;999.90;;;26.20;28.60;;;;;;5107956;28;20040;-72
2023/07/20 11:26:19;;;;;;;1999.90;999.90;;;27.50;27.60;;;;;;5106820;28;20043;-72
2023/07/20 11:28:53;;;;;;;1999.90;999.90;;;27.50;28.30;;;;;;5104992;28;20028;-72
2023/07/20 11:31:19;;;;;;;1999.90;999.90;;;27.90;26.80;;;;;;5091148;28;20061;-72
2023/07/20 11:33:45;;;;;;;1999.90;999.90;;;28.60;28.00;;;;;;5106010;28;20497;-75
2023/07/20 11:36:12;;;;;;;1999.90;999.90;;;29.00;28.50;;;;;;5108394;28;20497;-75
2023/07/20 11:38:41;;;;;;;1999.90;999.90;;;28.20;29.40;;;;;;5087879;28;20055;-75
2023/07/20 11:41:07;;;;;;;1999.90;999.90;;;28.80;25.90;;;;;;5106990;28;20034;-75
2023/07/20 11:43:33;;;;;;;1999.90;999.90;;;29.70;30.70;;;;;;5107778;28;20405;-75
2023/07/20 11:46:00;;;;;;;1999.90;999.90;;;29.80;24.00;;;;;;5106431;28;20043;-75
2023/07/20 11:48:26;;;;;;;1999.90;999.90;;;30.00;23.50;;;;;;5108657;28;20039;-75
2023/07/20 11:50:52;;;;;;;1999.90;999.90;;;30.10;22.90;;;;;;5108385;28;20111;-75
2023/07/20 11:53:18;;;;;;;1999.90;999.90;;;28.90;24.20;;;;;;5089579;28;20038;-77
2023/07/20 11:55:45;;;;;;;1999.90;999.90;;;29.00;28.60;;;;;;5105207;28;20035;-75
2023/07/20 11:58:10;;;;;;;1999.90;999.90;;;29.00;26.60;;;;;;5104854;28;20111;-76
2023/07/20 12:00:40;;;;;;;1999.90;999.90;;;30.00;26.40;;;;;;5108743;28;20111;-75
2023/07/20 12:03:07;;;;;;;1999.90;999.90;;;30.60;23.70;;;;;;5106745;28;20028;-76
2023/07/20 12:05:33;;;;;;;1999.90;999.90;;;29.40;25.90;;;;;;5107010;28;20073;-77
2023/07/20 12:07:59;;;;;;;1999.90;999.90;;;29.50;26.60;;;;;;5106867;28;20405;-76
2023/07/20 12:10:28;;;;;;;1999.90;999.90;;;29.50;24.00;;;;;;5108052;28;20059;-74
2023/07/20 12:12:54;;;;;;;1999.90;999.90;;;29.70;23.30;;;;;;5105593;28;20054;-75
2023/07/20 12:15:21;;;;;;;1999.90;999.90;;;29.20;23.80;;;;;;5106324;28;20032;-74
2023/07/20 12:17:51;;;;;;;1999.90;999.90;;;29.10;24.50;;;;;;5103836;28;20032;-75
2023/07/20 12:20:30;;;;;;;1999.90;999.90;;;30.20;23.90;;;;;;5105860;28;20031;-75
2023/07/20 12:23:17;;;;;;;1999.90;999.90;;;30.30;23.50;;;;;;5107439;28;20039;-75
2023/07/20 12:25:46;;;;;;;1999.90;999.90;;;30.50;25.50;;;;;;5108623;28;20043;-75